RYR2PA EPWR-LIME
Flight info
| Callsign | RYR2PA |
|---|---|
| Flight time | 1h 31m |
| Altitude | 36000 |
| Route | ULGIL T707 TOMTI DCT RUDAP DCT EBEDA DCT BADVI DCT BERAS DCT OLPIX DCT EKPEB DCT RENTA DCT ATPED DCT LUSIL T772 EKLIB |
| Aircraft | B38M/M-SADE3FGILRWY/SB1 |
Departure
| Time | 2026-05-06 18:45 |
|---|---|
| Airport | Copernicus Wrocław Airport (EPWR) |
Arrival
| Time | 2026-05-06 20:16 |
|---|---|
| Airport | Il Caravaggio International Airport (LIME) |
| Time | Latitude | Longitude | Altitude | Speed | Heading |
|---|---|---|---|---|---|
| 2026-05-06 18:01 | 51.10834 | 16.88094 | 406 ft | 0 kts | 26° |
| 2026-05-06 18:34 | 51.10817 | 16.88081 | 406 ft | 4 kts | 24° |
| 2026-05-06 18:34 | 51.10792 | 16.88069 | 406 ft | 4 kts | 2° |
| 2026-05-06 18:34 | 51.10768 | 16.88077 | 405 ft | 4 kts | 322° |
| 2026-05-06 18:34 | 51.10757 | 16.88097 | 403 ft | 1 kts | 296° |
| 2026-05-06 18:35 | 51.10756 | 16.88101 | 400 ft | 0 kts | 296° |
| 2026-05-06 18:37 | 51.10756 | 16.88100 | 406 ft | 1 kts | 296° |
| 2026-05-06 18:38 | 51.10766 | 16.88068 | 406 ft | 6 kts | 296° |
| 2026-05-06 18:38 | 51.10798 | 16.87963 | 376 ft | 15 kts | 296° |
| 2026-05-06 18:38 | 51.10851 | 16.87791 | 405 ft | 18 kts | 296° |
| 2026-05-06 18:38 | 51.10909 | 16.87601 | 406 ft | 19 kts | 296° |
| 2026-05-06 18:39 | 51.10950 | 16.87458 | 405 ft | 8 kts | 278° |
| 2026-05-06 18:39 | 51.10914 | 16.87394 | 405 ft | 9 kts | 206° |
| 2026-05-06 18:39 | 51.10850 | 16.87344 | 405 ft | 11 kts | 206° |
| 2026-05-06 18:40 | 51.10789 | 16.87297 | 406 ft | 0 kts | 206° |
| 2026-05-06 18:40 | 51.10768 | 16.87281 | 406 ft | 8 kts | 206° |
| 2026-05-06 18:40 | 51.10683 | 16.87268 | 405 ft | 16 kts | 148° |
| 2026-05-06 18:41 | 51.10620 | 16.87434 | 402 ft | 19 kts | 116° |
| 2026-05-06 18:41 | 51.10558 | 16.87633 | 403 ft | 21 kts | 116° |
| 2026-05-06 18:41 | 51.10489 | 16.87852 | 403 ft | 23 kts | 116° |
| 2026-05-06 18:41 | 51.10419 | 16.88085 | 405 ft | 23 kts | 115° |
| 2026-05-06 18:42 | 51.10346 | 16.88323 | 405 ft | 25 kts | 116° |
| 2026-05-06 18:42 | 51.10270 | 16.88572 | 405 ft | 26 kts | 116° |
| 2026-05-06 18:42 | 51.10186 | 16.88846 | 404 ft | 28 kts | 115° |
| 2026-05-06 18:42 | 51.10099 | 16.89127 | 404 ft | 27 kts | 116° |
| 2026-05-06 18:43 | 51.10019 | 16.89389 | 408 ft | 24 kts | 116° |
| 2026-05-06 18:43 | 51.09951 | 16.89608 | 407 ft | 19 kts | 116° |
| 2026-05-06 18:43 | 51.09894 | 16.89726 | 406 ft | 8 kts | 128° |
| 2026-05-06 18:43 | 51.09903 | 16.89754 | 406 ft | 2 kts | 346° |
| 2026-05-06 18:44 | 51.09910 | 16.89738 | 406 ft | 2 kts | 297° |
| 2026-05-06 18:44 | 51.09943 | 16.89635 | 406 ft | 33 kts | 296° |
| 2026-05-06 18:44 | 51.10175 | 16.88886 | 403 ft | 115 kts | 297° |
| 2026-05-06 18:44 | 51.10627 | 16.87403 | 456 ft | 175 kts | 294° |
| 2026-05-06 18:45 | 51.11187 | 16.85667 | 1359 ft | 174 kts | 298° |
| 2026-05-06 18:45 | 51.11715 | 16.83923 | 2336 ft | 179 kts | 296° |
| 2026-05-06 18:45 | 51.12278 | 16.82036 | 2999 ft | 199 kts | 294° |
| 2026-05-06 18:45 | 51.12548 | 16.80583 | 3355 ft | 218 kts | 275° |
| 2026-05-06 18:46 | 51.12117 | 16.77268 | 4311 ft | 242 kts | 237° |
| 2026-05-06 18:46 | 51.10928 | 16.75322 | 5210 ft | 253 kts | 212° |
| 2026-05-06 18:46 | 51.09494 | 16.73671 | 6335 ft | 256 kts | 226° |
| 2026-05-06 18:46 | 51.08534 | 16.71277 | 7487 ft | 262 kts | 245° |
| 2026-05-06 18:47 | 51.08078 | 16.68435 | 8549 ft | 269 kts | 258° |
| 2026-05-06 18:47 | 51.07815 | 16.65469 | 9626 ft | 273 kts | 258° |
| 2026-05-06 18:47 | 51.07549 | 16.62428 | 10431 ft | 285 kts | 258° |
| 2026-05-06 18:47 | 51.07268 | 16.59225 | 11065 ft | 300 kts | 258° |
| 2026-05-06 18:48 | 51.06975 | 16.55870 | 11796 ft | 312 kts | 258° |
| 2026-05-06 18:48 | 51.06675 | 16.52436 | 12714 ft | 315 kts | 259° |
| 2026-05-06 18:48 | 51.06372 | 16.48960 | 13616 ft | 320 kts | 259° |
| 2026-05-06 18:48 | 51.06064 | 16.45440 | 14402 ft | 324 kts | 259° |
| 2026-05-06 18:49 | 51.05752 | 16.41891 | 15233 ft | 326 kts | 259° |
| 2026-05-06 18:49 | 51.05436 | 16.38305 | 16034 ft | 329 kts | 259° |
| 2026-05-06 18:49 | 51.05120 | 16.34726 | 16824 ft | 332 kts | 259° |
| 2026-05-06 18:49 | 51.04796 | 16.31075 | 17590 ft | 335 kts | 258° |
| 2026-05-06 18:50 | 51.04468 | 16.27387 | 18313 ft | 339 kts | 258° |
| 2026-05-06 18:50 | 51.04132 | 16.23621 | 18965 ft | 342 kts | 258° |
| 2026-05-06 18:50 | 51.03800 | 16.19918 | 19609 ft | 344 kts | 258° |
| 2026-05-06 18:50 | 51.03460 | 16.16137 | 20236 ft | 347 kts | 258° |
| 2026-05-06 18:51 | 51.03116 | 16.12333 | 20861 ft | 350 kts | 258° |
| 2026-05-06 18:51 | 51.02768 | 16.08490 | 21470 ft | 353 kts | 258° |
| 2026-05-06 18:51 | 51.02416 | 16.04620 | 22077 ft | 356 kts | 258° |
| 2026-05-06 18:51 | 51.02059 | 16.00711 | 22684 ft | 359 kts | 258° |
| 2026-05-06 18:52 | 51.01699 | 15.96779 | 23278 ft | 362 kts | 258° |
| 2026-05-06 18:52 | 51.01333 | 15.92800 | 23774 ft | 365 kts | 257° |
| 2026-05-06 18:52 | 51.00963 | 15.88793 | 24262 ft | 368 kts | 257° |
| 2026-05-06 18:52 | 51.00589 | 15.84760 | 24712 ft | 371 kts | 257° |
| 2026-05-06 18:53 | 51.00211 | 15.80691 | 25186 ft | 373 kts | 257° |
| 2026-05-06 18:53 | 50.99829 | 15.76603 | 25619 ft | 377 kts | 257° |
| 2026-05-06 18:53 | 50.99440 | 15.72455 | 25771 ft | 380 kts | 257° |
| 2026-05-06 18:53 | 50.99052 | 15.68334 | 25791 ft | 378 kts | 257° |
| 2026-05-06 18:54 | 50.98660 | 15.64194 | 25784 ft | 378 kts | 257° |
| 2026-05-06 18:54 | 50.98269 | 15.60072 | 25792 ft | 378 kts | 257° |
| 2026-05-06 18:54 | 50.97877 | 15.55949 | 25790 ft | 378 kts | 257° |
| 2026-05-06 18:54 | 50.97482 | 15.51823 | 25789 ft | 378 kts | 257° |
| 2026-05-06 18:55 | 50.97086 | 15.47690 | 25785 ft | 379 kts | 257° |
| 2026-05-06 18:55 | 50.96689 | 15.43563 | 25790 ft | 379 kts | 257° |
| 2026-05-06 18:55 | 50.96290 | 15.39440 | 25782 ft | 379 kts | 257° |
| 2026-05-06 18:55 | 50.95887 | 15.35304 | 25787 ft | 379 kts | 257° |
| 2026-05-06 18:56 | 50.95151 | 15.31348 | 25777 ft | 371 kts | 240° |
| 2026-05-06 18:56 | 50.93664 | 15.28057 | 25790 ft | 368 kts | 224° |
| 2026-05-06 18:56 | 50.91758 | 15.25341 | 25787 ft | 369 kts | 220° |
| 2026-05-06 18:56 | 50.89796 | 15.22717 | 25791 ft | 369 kts | 219° |
| 2026-05-06 18:57 | 50.87805 | 15.20152 | 25786 ft | 369 kts | 218° |
| 2026-05-06 18:57 | 50.85793 | 15.17610 | 26114 ft | 370 kts | 218° |
| 2026-05-06 18:57 | 50.83767 | 15.15082 | 26545 ft | 373 kts | 218° |
| 2026-05-06 18:57 | 50.81720 | 15.12547 | 26986 ft | 375 kts | 218° |
| 2026-05-06 18:58 | 50.79652 | 15.09997 | 27450 ft | 378 kts | 218° |
| 2026-05-06 18:58 | 50.77572 | 15.07439 | 27883 ft | 380 kts | 218° |
| 2026-05-06 18:58 | 50.75477 | 15.04865 | 28308 ft | 383 kts | 218° |
| 2026-05-06 18:58 | 50.73374 | 15.02286 | 28730 ft | 385 kts | 218° |
| 2026-05-06 18:59 | 50.71248 | 14.99683 | 29136 ft | 387 kts | 218° |
| 2026-05-06 18:59 | 50.69142 | 14.97107 | 29531 ft | 389 kts | 218° |
| 2026-05-06 18:59 | 50.66968 | 14.94449 | 29783 ft | 394 kts | 218° |
| 2026-05-06 19:00 | 50.62639 | 14.89168 | 29770 ft | 391 kts | 218° |
| 2026-05-06 19:00 | 50.58338 | 14.83934 | 29770 ft | 391 kts | 218° |
| 2026-05-06 19:01 | 50.54025 | 14.78698 | 29773 ft | 391 kts | 218° |
| 2026-05-06 19:01 | 50.50443 | 14.74359 | 29767 ft | 391 kts | 218° |
| 2026-05-06 19:02 | 50.46140 | 14.69156 | 29763 ft | 392 kts | 218° |
| 2026-05-06 19:02 | 50.41812 | 14.63938 | 29760 ft | 392 kts | 218° |
| 2026-05-06 19:03 | 50.37484 | 14.58731 | 29758 ft | 392 kts | 218° |
| 2026-05-06 19:03 | 50.33147 | 14.53525 | 29753 ft | 393 kts | 218° |
| 2026-05-06 19:04 | 50.28810 | 14.48332 | 29747 ft | 393 kts | 218° |
| 2026-05-06 19:04 | 50.26643 | 14.45741 | 29881 ft | 394 kts | 218° |
| 2026-05-06 19:04 | 50.24426 | 14.43094 | 30250 ft | 395 kts | 218° |
| 2026-05-06 19:04 | 50.22239 | 14.40486 | 30589 ft | 397 kts | 218° |
| 2026-05-06 19:05 | 50.20060 | 14.37890 | 30944 ft | 399 kts | 218° |
| 2026-05-06 19:05 | 50.17818 | 14.35223 | 31291 ft | 401 kts | 218° |
| 2026-05-06 19:05 | 50.15598 | 14.32586 | 31629 ft | 402 kts | 218° |
| 2026-05-06 19:05 | 50.13395 | 14.29971 | 31951 ft | 404 kts | 218° |
| 2026-05-06 19:06 | 50.11163 | 14.27324 | 32350 ft | 403 kts | 218° |
| 2026-05-06 19:06 | 50.08934 | 14.24686 | 32821 ft | 402 kts | 218° |
| 2026-05-06 19:06 | 50.06712 | 14.22059 | 33279 ft | 400 kts | 218° |
| 2026-05-06 19:06 | 50.04498 | 14.19443 | 33736 ft | 398 kts | 218° |
| 2026-05-06 19:07 | 50.02297 | 14.16847 | 34105 ft | 397 kts | 218° |
| 2026-05-06 19:07 | 50.00143 | 14.14310 | 34425 ft | 397 kts | 218° |
| 2026-05-06 19:07 | 49.97899 | 14.11669 | 34748 ft | 396 kts | 218° |
| 2026-05-06 19:07 | 49.95696 | 14.09079 | 35073 ft | 396 kts | 218° |
| 2026-05-06 19:08 | 49.93498 | 14.06497 | 35359 ft | 396 kts | 218° |
| 2026-05-06 19:08 | 49.91298 | 14.03917 | 35656 ft | 397 kts | 217° |
| 2026-05-06 19:08 | 49.89096 | 14.01338 | 35767 ft | 398 kts | 217° |
| 2026-05-06 19:09 | 49.84705 | 13.96202 | 35753 ft | 394 kts | 217° |
| 2026-05-06 19:09 | 49.80314 | 13.91080 | 35756 ft | 394 kts | 217° |
| 2026-05-06 19:10 | 49.75932 | 13.85979 | 35755 ft | 394 kts | 217° |
| 2026-05-06 19:10 | 49.71549 | 13.80889 | 35753 ft | 394 kts | 217° |
| 2026-05-06 19:11 | 49.67168 | 13.75814 | 35748 ft | 393 kts | 217° |
| 2026-05-06 19:11 | 49.62792 | 13.70755 | 35759 ft | 393 kts | 217° |
| 2026-05-06 19:12 | 49.58418 | 13.65711 | 35757 ft | 393 kts | 217° |
| 2026-05-06 19:12 | 49.54037 | 13.60670 | 35754 ft | 392 kts | 217° |
| 2026-05-06 19:13 | 49.49669 | 13.55655 | 35761 ft | 391 kts | 217° |
| 2026-05-06 19:13 | 49.45306 | 13.50657 | 35762 ft | 392 kts | 217° |
| 2026-05-06 19:14 | 49.40926 | 13.45653 | 35755 ft | 392 kts | 217° |
| 2026-05-06 19:14 | 49.36557 | 13.40668 | 35757 ft | 392 kts | 217° |
| 2026-05-06 19:15 | 49.32178 | 13.35684 | 35756 ft | 392 kts | 217° |
| 2026-05-06 19:15 | 49.27798 | 13.30709 | 35754 ft | 391 kts | 217° |
| 2026-05-06 19:16 | 49.23404 | 13.25804 | 35758 ft | 392 kts | 216° |
| 2026-05-06 19:16 | 49.18942 | 13.21009 | 35758 ft | 392 kts | 216° |
| 2026-05-06 19:17 | 49.14513 | 13.16235 | 35761 ft | 392 kts | 216° |
| 2026-05-06 19:17 | 49.10064 | 13.11448 | 35755 ft | 391 kts | 216° |
| 2026-05-06 19:18 | 49.05613 | 13.06670 | 35761 ft | 392 kts | 216° |
| 2026-05-06 19:18 | 49.01156 | 13.01895 | 35753 ft | 391 kts | 216° |
| 2026-05-06 19:19 | 48.96699 | 12.97131 | 35764 ft | 391 kts | 216° |
| 2026-05-06 19:19 | 48.92251 | 12.92387 | 35772 ft | 391 kts | 215° |
| 2026-05-06 19:20 | 48.87800 | 12.87651 | 35764 ft | 390 kts | 215° |
| 2026-05-06 19:20 | 48.83351 | 12.82927 | 35773 ft | 390 kts | 215° |
| 2026-05-06 19:21 | 48.78906 | 12.78218 | 35787 ft | 390 kts | 215° |
| 2026-05-06 19:21 | 48.74462 | 12.73520 | 35795 ft | 389 kts | 215° |
| 2026-05-06 19:22 | 48.70019 | 12.68834 | 35800 ft | 389 kts | 215° |
| 2026-05-06 19:22 | 48.65576 | 12.64158 | 35809 ft | 389 kts | 215° |
| 2026-05-06 19:23 | 48.61147 | 12.59507 | 35822 ft | 388 kts | 215° |
| 2026-05-06 19:23 | 48.56702 | 12.54849 | 35832 ft | 389 kts | 215° |
| 2026-05-06 19:24 | 48.52251 | 12.50195 | 35837 ft | 389 kts | 215° |
| 2026-05-06 19:24 | 48.47796 | 12.45547 | 35839 ft | 390 kts | 215° |
| 2026-05-06 19:25 | 48.43334 | 12.40902 | 35852 ft | 390 kts | 215° |
| 2026-05-06 19:25 | 48.38862 | 12.36257 | 35857 ft | 391 kts | 215° |
| 2026-05-06 19:26 | 48.34385 | 12.31616 | 35861 ft | 391 kts | 215° |
| 2026-05-06 19:26 | 48.29897 | 12.26975 | 35863 ft | 392 kts | 214° |
| 2026-05-06 19:27 | 48.25407 | 12.22340 | 35859 ft | 392 kts | 214° |
| 2026-05-06 19:27 | 48.20907 | 12.17703 | 35860 ft | 393 kts | 214° |
| 2026-05-06 19:28 | 48.16346 | 12.13205 | 35858 ft | 393 kts | 205° |
| 2026-05-06 19:28 | 48.11119 | 12.10712 | 35872 ft | 396 kts | 199° |
| 2026-05-06 19:29 | 48.05833 | 12.08371 | 35878 ft | 397 kts | 198° |
| 2026-05-06 19:29 | 48.00556 | 12.06111 | 35864 ft | 397 kts | 198° |
| 2026-05-06 19:30 | 47.95201 | 12.03839 | 35871 ft | 397 kts | 198° |
| 2026-05-06 19:30 | 47.89879 | 12.01588 | 35868 ft | 397 kts | 198° |
| 2026-05-06 19:31 | 47.84566 | 11.99346 | 35861 ft | 398 kts | 198° |
| 2026-05-06 19:31 | 47.76666 | 11.96021 | 35576 ft | 382 kts | 198° |
| 2026-05-06 19:32 | 47.74126 | 11.94952 | 35357 ft | 376 kts | 199° |
| 2026-05-06 19:32 | 47.71647 | 11.93782 | 35136 ft | 372 kts | 200° |
| 2026-05-06 19:32 | 47.69197 | 11.92609 | 34907 ft | 369 kts | 200° |
| 2026-05-06 19:32 | 47.66793 | 11.91466 | 34685 ft | 366 kts | 200° |
| 2026-05-06 19:33 | 47.64363 | 11.90316 | 34483 ft | 364 kts | 201° |
| 2026-05-06 19:33 | 47.61970 | 11.89185 | 34267 ft | 361 kts | 201° |
| 2026-05-06 19:33 | 47.59560 | 11.88049 | 34041 ft | 358 kts | 201° |
| 2026-05-06 19:33 | 47.57193 | 11.86933 | 33827 ft | 356 kts | 201° |
| 2026-05-06 19:34 | 47.54839 | 11.85824 | 33597 ft | 353 kts | 201° |
| 2026-05-06 19:34 | 47.52502 | 11.84724 | 33354 ft | 351 kts | 201° |
| 2026-05-06 19:34 | 47.50183 | 11.83635 | 33101 ft | 349 kts | 201° |
| 2026-05-06 19:34 | 47.47906 | 11.82565 | 32882 ft | 347 kts | 201° |
| 2026-05-06 19:35 | 47.43312 | 11.80411 | 32840 ft | 346 kts | 201° |
| 2026-05-06 19:35 | 47.38777 | 11.78288 | 32820 ft | 346 kts | 201° |
| 2026-05-06 19:36 | 47.34106 | 11.76555 | 32818 ft | 349 kts | 193° |
| 2026-05-06 19:36 | 47.29307 | 11.75417 | 32835 ft | 350 kts | 194° |
| 2026-05-06 19:37 | 47.24524 | 11.74301 | 32835 ft | 348 kts | 194° |
| 2026-05-06 19:37 | 47.20514 | 11.73370 | 32810 ft | 347 kts | 194° |
| 2026-05-06 19:38 | 47.14968 | 11.72084 | 32817 ft | 347 kts | 193° |
| 2026-05-06 19:38 | 47.10207 | 11.70984 | 32845 ft | 346 kts | 194° |
| 2026-05-06 19:39 | 47.05450 | 11.69887 | 32833 ft | 346 kts | 194° |
| 2026-05-06 19:39 | 47.00843 | 11.68363 | 32835 ft | 337 kts | 208° |
| 2026-05-06 19:40 | 46.96529 | 11.65497 | 32824 ft | 338 kts | 207° |
| 2026-05-06 19:40 | 46.92242 | 11.62659 | 32823 ft | 338 kts | 207° |
| 2026-05-06 19:41 | 46.87971 | 11.59807 | 32841 ft | 338 kts | 207° |
| 2026-05-06 19:41 | 46.83686 | 11.56946 | 32851 ft | 339 kts | 207° |
| 2026-05-06 19:42 | 46.79423 | 11.54104 | 32841 ft | 340 kts | 207° |
| 2026-05-06 19:42 | 46.75152 | 11.51262 | 32828 ft | 338 kts | 207° |
| 2026-05-06 19:43 | 46.73005 | 11.49835 | 32645 ft | 335 kts | 207° |
| 2026-05-06 19:43 | 46.70888 | 11.48428 | 32381 ft | 333 kts | 207° |
| 2026-05-06 19:43 | 46.68936 | 11.46695 | 32155 ft | 326 kts | 223° |
| 2026-05-06 19:43 | 46.67383 | 11.44320 | 31968 ft | 325 kts | 225° |
| 2026-05-06 19:44 | 46.65819 | 11.41934 | 31749 ft | 324 kts | 226° |
| 2026-05-06 19:44 | 46.64279 | 11.39541 | 31567 ft | 323 kts | 226° |
| 2026-05-06 19:44 | 46.62761 | 11.37157 | 31351 ft | 320 kts | 226° |
| 2026-05-06 19:44 | 46.61256 | 11.34780 | 31141 ft | 318 kts | 226° |
| 2026-05-06 19:45 | 46.59768 | 11.32421 | 30945 ft | 316 kts | 226° |
| 2026-05-06 19:45 | 46.58287 | 11.30069 | 30736 ft | 314 kts | 226° |
| 2026-05-06 19:45 | 46.56814 | 11.27731 | 30536 ft | 313 kts | 226° |
| 2026-05-06 19:45 | 46.55360 | 11.25425 | 30332 ft | 311 kts | 226° |
| 2026-05-06 19:46 | 46.53890 | 11.23094 | 30140 ft | 310 kts | 226° |
| 2026-05-06 19:46 | 46.52439 | 11.20796 | 29885 ft | 308 kts | 226° |
| 2026-05-06 19:46 | 46.50996 | 11.18511 | 29666 ft | 307 kts | 226° |
| 2026-05-06 19:46 | 46.50042 | 11.17002 | 29572 ft | 306 kts | 226° |
| 2026-05-06 19:47 | 46.48119 | 11.13962 | 29268 ft | 305 kts | 226° |
| 2026-05-06 19:47 | 46.47170 | 11.12463 | 29110 ft | 304 kts | 226° |
| 2026-05-06 19:47 | 46.45739 | 11.10205 | 28975 ft | 304 kts | 226° |
| 2026-05-06 19:47 | 46.44310 | 11.07952 | 28762 ft | 303 kts | 226° |
| 2026-05-06 19:48 | 46.42886 | 11.05710 | 28532 ft | 303 kts | 226° |
| 2026-05-06 19:48 | 46.41462 | 11.03468 | 28321 ft | 302 kts | 226° |
| 2026-05-06 19:48 | 46.40040 | 11.01230 | 28101 ft | 301 kts | 226° |
| 2026-05-06 19:48 | 46.38621 | 10.99001 | 27870 ft | 301 kts | 226° |
| 2026-05-06 19:49 | 46.37207 | 10.96781 | 27656 ft | 300 kts | 226° |
| 2026-05-06 19:49 | 46.35793 | 10.94561 | 27436 ft | 299 kts | 226° |
| 2026-05-06 19:49 | 46.34385 | 10.92355 | 27220 ft | 298 kts | 226° |
| 2026-05-06 19:49 | 46.32978 | 10.90151 | 27005 ft | 298 kts | 226° |
| 2026-05-06 19:50 | 46.31572 | 10.87948 | 26780 ft | 298 kts | 226° |
| 2026-05-06 19:50 | 46.30320 | 10.85571 | 26556 ft | 299 kts | 239° |
| 2026-05-06 19:50 | 46.29398 | 10.82868 | 26348 ft | 300 kts | 239° |
| 2026-05-06 19:50 | 46.28442 | 10.80191 | 26135 ft | 300 kts | 239° |
| 2026-05-06 19:51 | 46.27494 | 10.77505 | 25936 ft | 300 kts | 239° |
| 2026-05-06 19:51 | 46.26552 | 10.74815 | 25705 ft | 300 kts | 240° |
| 2026-05-06 19:51 | 46.25618 | 10.72143 | 25424 ft | 297 kts | 240° |
| 2026-05-06 19:51 | 46.24694 | 10.69495 | 25077 ft | 294 kts | 240° |
| 2026-05-06 19:52 | 46.23778 | 10.66873 | 24756 ft | 291 kts | 240° |
| 2026-05-06 19:52 | 46.22872 | 10.64279 | 24442 ft | 287 kts | 240° |
| 2026-05-06 19:52 | 46.21977 | 10.61720 | 24160 ft | 284 kts | 240° |
| 2026-05-06 19:52 | 46.21087 | 10.59176 | 23850 ft | 283 kts | 240° |
| 2026-05-06 19:53 | 46.20200 | 10.56644 | 23555 ft | 284 kts | 240° |
| 2026-05-06 19:53 | 46.19298 | 10.54071 | 23179 ft | 289 kts | 240° |
| 2026-05-06 19:53 | 46.18382 | 10.51461 | 22861 ft | 293 kts | 240° |
| 2026-05-06 19:53 | 46.17459 | 10.48832 | 22545 ft | 295 kts | 240° |
| 2026-05-06 19:54 | 46.16532 | 10.46197 | 22231 ft | 294 kts | 240° |
| 2026-05-06 19:54 | 46.15608 | 10.43569 | 21960 ft | 295 kts | 240° |
| 2026-05-06 19:54 | 46.14681 | 10.40939 | 21590 ft | 295 kts | 240° |
| 2026-05-06 19:54 | 46.13752 | 10.38305 | 21277 ft | 293 kts | 240° |
| 2026-05-06 19:55 | 46.12833 | 10.35701 | 20981 ft | 289 kts | 240° |
| 2026-05-06 19:55 | 46.11927 | 10.33137 | 20691 ft | 285 kts | 240° |
| 2026-05-06 19:55 | 46.11031 | 10.30606 | 20393 ft | 282 kts | 240° |
| 2026-05-06 19:55 | 46.10145 | 10.28103 | 20108 ft | 278 kts | 240° |
| 2026-05-06 19:56 | 46.09263 | 10.25616 | 19818 ft | 282 kts | 240° |
| 2026-05-06 19:56 | 46.08367 | 10.23089 | 19512 ft | 287 kts | 240° |
| 2026-05-06 19:56 | 46.07447 | 10.20497 | 19213 ft | 290 kts | 240° |
| 2026-05-06 19:56 | 46.06527 | 10.17907 | 18909 ft | 290 kts | 240° |
| 2026-05-06 19:57 | 46.05612 | 10.15333 | 18613 ft | 287 kts | 240° |
| 2026-05-06 19:57 | 46.04686 | 10.12804 | 18298 ft | 286 kts | 235° |
| 2026-05-06 19:57 | 46.03337 | 10.10786 | 17932 ft | 278 kts | 216° |
| 2026-05-06 19:57 | 46.01818 | 10.09070 | 17632 ft | 276 kts | 218° |
| 2026-05-06 19:58 | 46.00320 | 10.07367 | 17339 ft | 274 kts | 218° |
| 2026-05-06 19:58 | 45.98828 | 10.05694 | 17042 ft | 270 kts | 217° |
| 2026-05-06 19:58 | 45.97363 | 10.04066 | 16773 ft | 266 kts | 217° |
| 2026-05-06 19:58 | 45.95867 | 10.02416 | 16475 ft | 274 kts | 217° |
| 2026-05-06 19:59 | 45.94342 | 10.00741 | 16187 ft | 278 kts | 217° |
| 2026-05-06 19:59 | 45.92800 | 9.99052 | 15902 ft | 280 kts | 217° |
| 2026-05-06 19:59 | 45.91255 | 9.97362 | 15609 ft | 279 kts | 217° |
| 2026-05-06 19:59 | 45.89714 | 9.95676 | 15312 ft | 279 kts | 217° |
| 2026-05-06 20:00 | 45.88181 | 9.93999 | 14969 ft | 281 kts | 217° |
| 2026-05-06 20:00 | 45.86613 | 9.92283 | 14657 ft | 279 kts | 217° |
| 2026-05-06 20:00 | 45.85092 | 9.90620 | 14399 ft | 278 kts | 217° |
| 2026-05-06 20:00 | 45.83555 | 9.88943 | 14095 ft | 278 kts | 217° |
| 2026-05-06 20:01 | 45.82011 | 9.87261 | 13796 ft | 278 kts | 217° |
| 2026-05-06 20:01 | 45.80475 | 9.85588 | 13467 ft | 276 kts | 217° |
| 2026-05-06 20:01 | 45.78953 | 9.83933 | 13156 ft | 273 kts | 217° |
| 2026-05-06 20:01 | 45.77449 | 9.82297 | 12936 ft | 270 kts | 217° |
| 2026-05-06 20:02 | 45.75949 | 9.80667 | 12905 ft | 271 kts | 217° |
| 2026-05-06 20:02 | 45.74443 | 9.79031 | 12916 ft | 272 kts | 217° |
| 2026-05-06 20:02 | 45.72934 | 9.77396 | 12919 ft | 272 kts | 217° |
| 2026-05-06 20:02 | 45.71429 | 9.75766 | 12870 ft | 271 kts | 217° |
| 2026-05-06 20:03 | 45.69908 | 9.74121 | 12320 ft | 278 kts | 217° |
| 2026-05-06 20:03 | 45.68307 | 9.72515 | 11730 ft | 285 kts | 206° |
| 2026-05-06 20:03 | 45.66367 | 9.71850 | 11135 ft | 294 kts | 181° |
| 2026-05-06 20:03 | 45.64350 | 9.72493 | 10572 ft | 304 kts | 159° |
| 2026-05-06 20:04 | 45.62421 | 9.73736 | 10150 ft | 305 kts | 159° |
| 2026-05-06 20:04 | 45.60485 | 9.74941 | 9855 ft | 301 kts | 159° |
| 2026-05-06 20:04 | 45.58576 | 9.76128 | 9514 ft | 298 kts | 159° |
| 2026-05-06 20:04 | 45.56689 | 9.77301 | 9207 ft | 294 kts | 159° |
| 2026-05-06 20:05 | 45.54841 | 9.78449 | 9074 ft | 284 kts | 159° |
| 2026-05-06 20:05 | 45.53051 | 9.79504 | 8967 ft | 272 kts | 166° |
| 2026-05-06 20:05 | 45.51253 | 9.79983 | 8967 ft | 256 kts | 174° |
| 2026-05-06 20:05 | 45.49506 | 9.80361 | 8801 ft | 254 kts | 173° |
| 2026-05-06 20:06 | 45.47762 | 9.80744 | 8592 ft | 253 kts | 173° |
| 2026-05-06 20:06 | 45.46024 | 9.81128 | 8400 ft | 252 kts | 173° |
| 2026-05-06 20:06 | 45.44294 | 9.81512 | 8194 ft | 252 kts | 173° |
| 2026-05-06 20:06 | 45.42565 | 9.81897 | 8061 ft | 251 kts | 173° |
| 2026-05-06 20:07 | 45.40843 | 9.82280 | 7856 ft | 250 kts | 173° |
| 2026-05-06 20:07 | 45.39120 | 9.82663 | 7646 ft | 250 kts | 173° |
| 2026-05-06 20:07 | 45.37437 | 9.83259 | 7424 ft | 252 kts | 154° |
| 2026-05-06 20:07 | 45.36166 | 9.84958 | 7122 ft | 257 kts | 121° |
| 2026-05-06 20:08 | 45.35657 | 9.87391 | 6904 ft | 261 kts | 95° |
| 2026-05-06 20:08 | 45.35891 | 9.89939 | 6685 ft | 264 kts | 70° |
| 2026-05-06 20:08 | 45.36913 | 9.92081 | 6465 ft | 264 kts | 41° |
| 2026-05-06 20:08 | 45.38515 | 9.93301 | 6237 ft | 262 kts | 13° |
| 2026-05-06 20:09 | 45.40306 | 9.93742 | 6029 ft | 261 kts | 9° |
| 2026-05-06 20:09 | 45.42090 | 9.94200 | 5950 ft | 260 kts | 9° |
| 2026-05-06 20:09 | 45.43876 | 9.94679 | 5947 ft | 262 kts | 10° |
| 2026-05-06 20:09 | 45.45666 | 9.95173 | 5957 ft | 262 kts | 10° |
| 2026-05-06 20:10 | 45.47427 | 9.95667 | 5954 ft | 261 kts | 11° |
| 2026-05-06 20:10 | 45.49210 | 9.96172 | 5921 ft | 262 kts | 11° |
| 2026-05-06 20:10 | 45.51011 | 9.96377 | 5805 ft | 260 kts | 357° |
| 2026-05-06 20:10 | 45.52813 | 9.96264 | 5715 ft | 260 kts | 357° |
| 2026-05-06 20:11 | 45.54633 | 9.96162 | 5390 ft | 264 kts | 357° |
| 2026-05-06 20:11 | 45.56500 | 9.96066 | 4947 ft | 265 kts | 358° |
| 2026-05-06 20:11 | 45.58314 | 9.95971 | 4543 ft | 264 kts | 358° |
| 2026-05-06 20:11 | 45.60117 | 9.95688 | 4152 ft | 259 kts | 342° |
| 2026-05-06 20:12 | 45.61644 | 9.94453 | 3844 ft | 250 kts | 316° |
| 2026-05-06 20:12 | 45.62659 | 9.92513 | 3570 ft | 240 kts | 294° |
| 2026-05-06 20:12 | 45.63188 | 9.90344 | 3310 ft | 222 kts | 282° |
| 2026-05-06 20:12 | 45.63528 | 9.88310 | 3055 ft | 198 kts | 282° |
| 2026-05-06 20:13 | 45.63847 | 9.86506 | 2822 ft | 177 kts | 283° |
| 2026-05-06 20:13 | 45.64151 | 9.84871 | 2579 ft | 165 kts | 284° |
| 2026-05-06 20:13 | 45.64438 | 9.83320 | 2394 ft | 158 kts | 284° |
| 2026-05-06 20:13 | 45.64719 | 9.81808 | 2174 ft | 157 kts | 285° |
| 2026-05-06 20:14 | 45.64999 | 9.80297 | 1964 ft | 156 kts | 286° |
| 2026-05-06 20:14 | 45.65276 | 9.78808 | 1735 ft | 154 kts | 287° |
| 2026-05-06 20:14 | 45.65547 | 9.77342 | 1525 ft | 151 kts | 287° |
| 2026-05-06 20:14 | 45.65816 | 9.75910 | 1346 ft | 148 kts | 288° |
| 2026-05-06 20:15 | 45.66070 | 9.74499 | 1109 ft | 146 kts | 287° |
| 2026-05-06 20:15 | 45.66329 | 9.73103 | 937 ft | 144 kts | 287° |
| 2026-05-06 20:15 | 45.66585 | 9.71741 | 791 ft | 137 kts | 287° |
| 2026-05-06 20:15 | 45.66771 | 9.70761 | 790 ft | 67 kts | 284° |
| 2026-05-06 20:16 | 45.66849 | 9.70342 | 790 ft | 34 kts | 284° |
| 2026-05-06 20:16 | 45.66890 | 9.70117 | 790 ft | 17 kts | 280° |
| 2026-05-06 20:16 | 45.66884 | 9.70004 | 790 ft | 0 kts | 246° |
| 2026-05-06 20:16 | 45.66879 | 9.69988 | 790 ft | 3 kts | 243° |
| 2026-05-06 20:17 | 45.66859 | 9.69934 | 790 ft | 9 kts | 243° |
| 2026-05-06 20:17 | 45.66811 | 9.69853 | 790 ft | 12 kts | 192° |
| 2026-05-06 20:17 | 45.66758 | 9.69917 | 790 ft | 7 kts | 105° |
| 2026-05-06 20:17 | 45.66745 | 9.69982 | 790 ft | 6 kts | 105° |
| 2026-05-06 20:18 | 45.66733 | 9.70045 | 790 ft | 7 kts | 104° |
| 2026-05-06 20:18 | 45.66723 | 9.70087 | 790 ft | 4 kts | 121° |
| 2026-05-06 20:18 | 45.66700 | 9.70099 | 790 ft | 2 kts | 213° |
| 2026-05-06 20:18 | 45.66677 | 9.70076 | 790 ft | 5 kts | 214° |
| 2026-05-06 20:19 | 45.66647 | 9.70060 | 790 ft | 3 kts | 195° |
| 2026-05-06 20:19 | 45.66633 | 9.70055 | 790 ft | 0 kts | 195° |